createdAt,value
2022-09-09T00:00:44.981Z,65.29
2022-09-09T00:06:03.449Z,65.57
2022-09-09T00:11:06.596Z,65.43
2022-09-09T00:16:15.118Z,65.54
2022-09-09T00:21:19.379Z,65.80
2022-09-09T00:26:40.770Z,65.93
2022-09-09T00:31:43.670Z,65.93
2022-09-09T00:36:49.546Z,65.99
2022-09-09T00:41:58.490Z,65.81
2022-09-09T00:47:12.655Z,66.09
2022-09-09T00:52:27.534Z,65.88
2022-09-09T00:57:33.473Z,65.94
2022-09-09T01:02:51.231Z,65.86
2022-09-09T01:07:58.346Z,65.85
2022-09-09T01:13:06.733Z,65.80
2022-09-09T01:18:13.700Z,65.66
2022-09-09T01:23:43.341Z,65.75
2022-09-09T01:28:49.819Z,65.74
2022-09-09T01:33:52.622Z,65.87
2022-09-09T01:38:55.523Z,65.86
2022-09-09T01:43:58.640Z,65.91
2022-09-09T01:49:03.135Z,65.94
2022-09-09T01:54:08.026Z,65.97
2022-09-09T01:59:30.383Z,66.15
2022-09-09T02:04:36.052Z,66.20
2022-09-09T02:09:42.170Z,66.25
2022-09-09T02:14:56.290Z,66.24
2022-09-09T02:20:13.877Z,66.31
2022-09-09T02:25:20.949Z,66.38
2022-09-09T02:30:23.788Z,66.41
2022-09-09T02:35:29.507Z,66.53
2022-09-09T02:40:32.422Z,67.07
2022-09-09T02:45:43.598Z,68.13
2022-09-09T02:50:58.696Z,69.08
2022-09-09T02:56:14.618Z,69.90
2022-09-09T03:01:17.681Z,70.69
2022-09-09T03:06:20.312Z,71.63
2022-09-09T03:11:23.126Z,72.25
2022-09-09T03:16:26.402Z,73.38
2022-09-09T03:21:29.955Z,74.65
2022-09-09T03:26:33.064Z,76.17
2022-09-09T03:31:37.163Z,77.78
2022-09-09T03:36:40.305Z,79.49
2022-09-09T03:41:43.003Z,81.61
2022-09-09T03:46:46.011Z,83.09
2022-09-09T03:51:48.951Z,84.15
2022-09-09T03:56:52.081Z,84.96
2022-09-09T04:01:55.794Z,86.39
2022-09-09T04:06:58.956Z,87.36
2022-09-09T04:12:01.756Z,88.39
2022-09-09T04:17:07.332Z,89.40
2022-09-09T04:22:10.717Z,90.27
2022-09-09T04:27:13.495Z,91.14
2022-09-09T04:32:16.342Z,92.42
2022-09-09T04:37:19.242Z,93.36
2022-09-09T04:42:22.148Z,94.74
2022-09-09T04:47:24.980Z,96.23
2022-09-09T04:52:27.854Z,98.16
2022-09-09T04:57:33.152Z,99.78
2022-09-09T05:02:39.853Z,100.00
2022-09-09T05:07:44.549Z,100.00
2022-09-09T05:12:54.737Z,100.00
2022-09-09T05:18:01.826Z,100.00
2022-09-09T05:23:04.639Z,100.00
2022-09-09T05:28:09.036Z,100.00
2022-09-09T05:33:11.857Z,100.00
2022-09-09T05:38:15.242Z,100.00
2022-09-09T05:43:18.064Z,100.00
2022-09-09T05:48:20.953Z,100.00
2022-09-09T05:53:23.859Z,100.00
2022-09-09T05:58:26.719Z,100.00
2022-09-09T06:03:29.773Z,100.00
2022-09-09T06:08:38.309Z,100.00
2022-09-09T06:13:41.490Z,100.00
2022-09-09T06:18:44.873Z,100.00
2022-09-09T06:23:48.986Z,100.00
2022-09-09T06:28:53.839Z,100.00
2022-09-09T06:33:57.980Z,100.00
2022-09-09T06:39:02.542Z,100.00
2022-09-09T06:44:05.791Z,100.00
2022-09-09T06:49:11.688Z,100.00
2022-09-09T06:54:14.503Z,100.00
2022-09-09T06:59:17.642Z,100.00
2022-09-09T07:04:20.570Z,100.00
2022-09-09T07:09:23.444Z,100.00
2022-09-09T07:14:26.388Z,100.00
2022-09-09T07:19:29.675Z,100.00
2022-09-09T07:24:32.928Z,100.00
2022-09-09T07:29:35.816Z,100.00
2022-09-09T07:34:38.630Z,100.00
2022-09-09T07:39:42.339Z,100.00
2022-09-09T07:44:45.227Z,100.00
2022-09-09T07:49:50.907Z,100.00
2022-09-09T07:54:53.786Z,100.00
2022-09-09T07:59:57.503Z,100.00
2022-09-09T08:05:00.496Z,100.00
2022-09-09T08:10:05.055Z,100.00
2022-09-09T08:15:08.151Z,100.00
2022-09-09T08:20:10.889Z,100.00
2022-09-09T08:25:14.714Z,100.00
2022-09-09T08:30:17.872Z,100.00
2022-09-09T08:35:21.808Z,100.00
2022-09-09T08:40:34.327Z,100.00
2022-09-09T08:46:01.812Z,100.00
2022-09-09T08:51:08.357Z,100.00
2022-09-09T08:56:15.124Z,100.00
2022-09-09T09:01:24.040Z,100.00
2022-09-09T09:06:39.318Z,100.00
2022-09-09T09:11:49.337Z,100.00
2022-09-09T09:17:14.205Z,100.00
2022-09-09T09:22:26.402Z,100.00
2022-09-09T09:27:40.914Z,100.00
2022-09-09T09:32:55.568Z,100.00
2022-09-09T09:43:27.722Z,100.00
2022-09-09T09:48:31.603Z,100.00
2022-09-09T09:53:37.425Z,100.00
2022-09-09T09:58:46.752Z,100.00
2022-09-09T10:04:00.635Z,100.00
2022-09-09T10:09:09.374Z,100.00
2022-09-09T10:14:45.690Z,100.00
2022-09-09T10:20:00.754Z,100.00
2022-09-09T10:25:05.378Z,100.00
2022-09-09T10:30:18.868Z,100.00
2022-09-09T10:35:41.177Z,100.00
2022-09-09T10:41:07.398Z,100.00
2022-09-09T10:46:23.209Z,100.00
2022-09-09T10:51:46.251Z,100.00
2022-09-09T10:56:57.809Z,100.00
2022-09-09T11:02:28.957Z,100.00
2022-09-09T11:07:53.719Z,100.00
2022-09-09T11:13:02.354Z,100.00
2022-09-09T11:18:08.471Z,100.00
2022-09-09T11:23:45.381Z,100.00
2022-09-09T11:29:05.136Z,100.00
2022-09-09T11:34:50.524Z,100.00
2022-09-09T11:40:10.970Z,100.00
2022-09-09T11:45:28.349Z,100.00
2022-09-09T11:50:34.308Z,100.00
2022-09-09T11:55:38.159Z,100.00
2022-09-09T12:00:51.601Z,100.00
2022-09-09T12:05:55.109Z,100.00
2022-09-09T12:11:00.739Z,100.00
2022-09-09T12:16:06.359Z,100.00
2022-09-09T12:21:34.612Z,100.00
2022-09-09T12:26:50.025Z,100.00
2022-09-09T12:32:07.269Z,100.00
2022-09-09T12:37:22.280Z,100.00
2022-09-09T12:42:26.108Z,100.00
2022-09-09T12:47:34.429Z,100.00
2022-09-09T12:52:39.997Z,100.00
2022-09-09T12:57:44.747Z,100.00
2022-09-09T13:02:56.234Z,100.00
2022-09-09T13:08:11.218Z,100.00
2022-09-09T13:13:21.335Z,100.00
2022-09-09T13:18:29.823Z,100.00
2022-09-09T13:23:36.446Z,100.00
2022-09-09T13:28:39.466Z,100.00
2022-09-09T13:33:42.287Z,100.00
2022-09-09T13:39:00.832Z,100.00
2022-09-09T13:44:07.575Z,100.00
2022-09-09T13:49:10.288Z,100.00
2022-09-09T13:54:15.497Z,100.00
2022-09-09T13:59:30.748Z,100.00
2022-09-09T14:04:46.436Z,100.00
2022-09-09T14:09:51.222Z,100.00
2022-09-09T14:14:54.042Z,100.00
2022-09-09T14:19:57.337Z,100.00
2022-09-09T14:25:00.197Z,100.00
2022-09-09T14:30:03.839Z,100.00
2022-09-09T14:35:06.994Z,100.00
2022-09-09T14:40:10.240Z,100.00
2022-09-09T14:45:13.142Z,100.00
2022-09-09T14:50:16.004Z,100.00
2022-09-09T14:55:18.798Z,100.00
2022-09-09T15:00:21.988Z,100.00
2022-09-09T15:05:25.502Z,100.00
2022-09-09T15:10:28.351Z,100.00
2022-09-09T15:15:31.118Z,100.00
2022-09-09T15:20:38.273Z,100.00
2022-09-09T15:25:57.585Z,100.00
2022-09-09T15:31:07.410Z,100.00
2022-09-09T15:36:23.031Z,100.00
2022-09-09T15:41:25.953Z,100.00
2022-09-09T15:46:28.958Z,100.00
2022-09-09T15:51:42.117Z,100.00
2022-09-09T15:56:58.488Z,100.00
2022-09-09T16:02:02.476Z,100.00
2022-09-09T16:07:07.250Z,100.00
2022-09-09T16:12:13.008Z,100.00
2022-09-09T16:17:16.801Z,100.00
2022-09-09T16:22:19.603Z,100.00
2022-09-09T16:27:24.257Z,100.00
2022-09-09T16:32:27.263Z,100.00
2022-09-09T16:37:30.508Z,100.00
2022-09-09T16:42:37.475Z,100.00
2022-09-09T16:47:42.278Z,100.00
2022-09-09T16:52:45.074Z,100.00
2022-09-09T16:57:51.127Z,100.00
2022-09-09T17:02:53.941Z,100.00
2022-09-09T17:07:59.998Z,100.00
2022-09-09T17:13:03.055Z,100.00
2022-09-09T17:18:05.915Z,100.00
2022-09-09T17:23:10.581Z,100.00
2022-09-09T17:28:13.637Z,100.00
2022-09-09T17:33:16.367Z,100.00
2022-09-09T17:38:19.145Z,100.00
2022-09-09T17:43:21.965Z,100.00
2022-09-09T17:48:24.782Z,100.00
2022-09-09T17:53:28.693Z,100.00
2022-09-09T17:58:31.859Z,100.00
2022-09-09T18:03:40.389Z,100.00
2022-09-09T18:08:49.223Z,100.00
2022-09-09T18:13:54.965Z,100.00
2022-09-09T18:18:58.740Z,100.00
2022-09-09T18:24:03.942Z,100.00
2022-09-09T18:29:10.409Z,100.00
2022-09-09T18:34:17.544Z,100.00
2022-09-09T18:39:21.782Z,100.00
2022-09-09T18:44:27.131Z,100.00
2022-09-09T18:49:29.984Z,100.00
2022-09-09T18:54:35.883Z,100.00
2022-09-09T18:59:38.639Z,100.00
2022-09-09T19:04:41.452Z,100.00
2022-09-09T19:09:44.789Z,100.00
2022-09-09T19:14:47.804Z,100.00
2022-09-09T19:19:51.724Z,100.00
2022-09-09T19:24:55.967Z,100.00
2022-09-09T19:29:59.520Z,100.00
2022-09-09T19:35:02.833Z,100.00
2022-09-09T19:40:08.221Z,100.00
2022-09-09T19:45:11.068Z,100.00
2022-09-09T19:50:14.375Z,100.00
2022-09-09T19:55:17.617Z,100.00
2022-09-09T20:00:20.388Z,100.00
2022-09-09T20:05:23.907Z,100.00
2022-09-09T20:10:26.703Z,100.00
2022-09-09T20:15:29.469Z,100.00
2022-09-09T20:20:32.236Z,100.00
2022-09-09T20:25:38.290Z,100.00
2022-09-09T20:30:41.135Z,100.00
2022-09-09T20:35:44.734Z,100.00
2022-09-09T20:40:48.319Z,100.00
2022-09-09T20:45:53.950Z,100.00
2022-09-09T20:50:56.751Z,100.00
2022-09-09T20:56:01.678Z,100.00
2022-09-09T21:01:07.515Z,100.00
2022-09-09T21:06:11.566Z,100.00
2022-09-09T21:11:15.391Z,100.00
2022-09-09T21:16:21.749Z,100.00
2022-09-09T21:21:26.264Z,100.00
2022-09-09T21:26:29.091Z,100.00
2022-09-09T21:31:32.150Z,100.00
2022-09-09T21:36:34.925Z,100.00
2022-09-09T21:41:37.829Z,100.00
2022-09-09T21:46:44.913Z,100.00
2022-09-09T21:51:47.687Z,100.00
2022-09-09T21:56:52.445Z,100.00
2022-09-09T22:01:55.307Z,100.00
2022-09-09T22:06:58.174Z,100.00
2022-09-09T22:12:01.151Z,100.00
2022-09-09T22:17:05.477Z,100.00
2022-09-09T22:22:08.273Z,100.00
2022-09-09T22:27:12.519Z,100.00
2022-09-09T22:32:15.408Z,100.00
2022-09-09T22:37:19.581Z,100.00
2022-09-09T22:42:22.868Z,100.00
2022-09-09T22:47:26.584Z,100.00
2022-09-09T22:52:31.944Z,100.00
2022-09-09T22:57:34.700Z,100.00
2022-09-09T23:02:40.776Z,100.00
2022-09-09T23:07:43.817Z,100.00
2022-09-09T23:12:47.276Z,100.00
2022-09-09T23:17:52.224Z,100.00
2022-09-09T23:22:56.046Z,100.00
2022-09-09T23:27:58.822Z,100.00
2022-09-09T23:33:01.677Z,100.00
2022-09-09T23:38:05.232Z,100.00
2022-09-09T23:43:08.893Z,100.00
2022-09-09T23:48:11.629Z,100.00
2022-09-09T23:53:15.745Z,100.00
2022-09-09T23:58:18.521Z,100.00
